Decoded Metar for OMAL (AL AIN in UNITED ARAB EMIRATES) (IATA:N/A) | Meteo·Mobile Aviation Weather
aviador You're here:

OMAL Decoded Metar

AL AIN in UNITED ARAB EMIRATES
Report Time2019-01-20 10:00:00
UTC Time2019-01-20 10:43:02
Flight Rules vfr VFR
Wind300° at 15 kt
W.Decomp.*RWY 01: 4.9 kt HW 14.2 kt LCW
W.Rank300° ranks 7
Current wind is above 300° avg. (8.4)
Visibility9999 m
Phenomena:N/A
Clouds:Few 040 Hf
Expected CloudBase > 5,600 ft AGL from Temp-Dew spread
CeilingNone
Temp20°C (ISA +7)
Dew Point06°C (40% RH)
AAT13.7°C
QNH1019 hPa
Density Alt1,585 ft
Elevation869 ft
Report Wrong Elevation
Raw Report
METAR OMAL 201000Z 30015KT 9999 FEW040 20/06 Q1019 NOSIG=

Extra information for OMAL:More info

Metar Taf Metar & Taf Last 4 Metars F.Rules Stats Wind Profile Meteogram Temp Stats Airport Information Weather charts Add Link Nearby VenuesMetar ALERT Operation Metar Decoded Social comments